Bouzas — EAPC — position and weather

sailwx.info

Track history (hours):
 
Tides and Currents Weather Stations Pressure Air Temp Water Temp Dewpoint Dewpoint Depression Visibility Wind Speed Wind Dir Waves Ship Positions

Bouzas

Last reported at 2015-Feb-27 15:06 UTC. Time now 2015-Feb-28 00:41 UTC.
Position N 41°14' E 002°13'.

Length 142 m; draft 5.4 m.

Type: Cargo ship. MMSI: 224029000.

Date/timePositionNaut miles runAvg speedWind from/ knotsBaromVisibWave heightAir tempDewpointWater temp
2015-Feb-27 15:06N 41°14' E 002°13'1017.6
2015-Feb-27 14:33N 41°06' E 002°05'1818.0
2015-Feb-27 13:33N 40°50' E 001°55'1717.4
2015-Feb-27 12:33N 40°34' E 001°44'1716.6
2015-Feb-27 11:34N 40°19' E 001°36'1615.8
2015-Feb-27 10:33N 40°06' E 001°25'1716.6
2015-Feb-27 09:33N 39°51' E 001°14'12718.2
2015-Feb-27 02:33N 38°00' W 000°07'1818.2
2015-Feb-27 01:33N 37°45' W 000°19'2117.9
2015-Feb-27 00:24N 37°29' W 000°36'1618.4
2015-Feb-26 23:33N 37°19' W 000°51'22218.5
2015-Feb-26 11:32N 35°59' W 005°09'  
2015-Feb-22 08:30N 35°58' W 005°35'1313.8
2015-Feb-22 07:34N 36°02' W 005°20'21317.3
2015-Feb-21 19:12N 37°06' W 001°07'1218.4
2015-Feb-21 18:33N 37°13' W 000°55'2219.2
2015-Feb-21 17:25N 37°26' W 000°33'1719.2
2015-Feb-21 16:33N 37°37' W 000°17'15018.7
2015-Feb-21 08:33N 39°47' E 001°18'1918.9
2015-Feb-21 07:33N 40°04' E 001°28'1919.0
2015-Feb-21 06:33N 40°21' E 001°39'1919.0
2015-Feb-21 05:33N 40°38' E 001°50'1918.7
2015-Feb-21 04:33N 40°54' E 002°03'12 0.8
2015-Feb-20 14:30N 41°05' E 002°06'1819.0
2015-Feb-20 13:33N 40°49' E 001°57'1818.3
2015-Feb-20 12:33N 40°33' E 001°44'1918.6
2015-Feb-20 11:33N 40°17' E 001°33'1918.6
2015-Feb-20 10:33N 40°00' E 001°21'2118.9
2015-Feb-20 09:28N 39°42' E 001°08'13318.3
2015-Feb-20 02:11N 37°47' W 000°19'25915.6
2015-Feb-19 09:33N 35°59' W 005°13'1413.8
2015-Feb-19 08:33N 35°57' W 005°29'  
Track history (hours):
 
Tides and Currents Weather Stations Pressure Air Temp Water Temp Dewpoint Dewpoint Depression Visibility Wind Speed Wind Dir Waves Ship Positions

Bouzas

Last reported at 2015-Feb-27 15:06 UTC. Time now 2015-Feb-28 00:41 UTC.
Position N 41°14' E 002°13'.

Length 142 m; draft 5.4 m.

Type: Cargo ship. MMSI: 224029000.

Date/timePositionNaut miles runAvg speedWind from/ knotsBaromVisibWave heightAir tempDewpointWater temp
2015-Feb-27 15:06N 41°14' E 002°13'1017.6
2015-Feb-27 14:33N 41°06' E 002°05'1818.0
2015-Feb-27 13:33N 40°50' E 001°55'1717.4
2015-Feb-27 12:33N 40°34' E 001°44'1716.6
2015-Feb-27 11:34N 40°19' E 001°36'1615.8
2015-Feb-27 10:33N 40°06' E 001°25'1716.6
2015-Feb-27 09:33N 39°51' E 001°14'12718.2
2015-Feb-27 02:33N 38°00' W 000°07'1818.2
2015-Feb-27 01:33N 37°45' W 000°19'2117.9
2015-Feb-27 00:24N 37°29' W 000°36'1618.4
2015-Feb-26 23:33N 37°19' W 000°51'22218.5
2015-Feb-26 11:32N 35°59' W 005°09'  
2015-Feb-22 08:30N 35°58' W 005°35'1313.8
2015-Feb-22 07:34N 36°02' W 005°20'21317.3
2015-Feb-21 19:12N 37°06' W 001°07'1218.4
2015-Feb-21 18:33N 37°13' W 000°55'2219.2
2015-Feb-21 17:25N 37°26' W 000°33'1719.2
2015-Feb-21 16:33N 37°37' W 000°17'15018.7
2015-Feb-21 08:33N 39°47' E 001°18'1918.9
2015-Feb-21 07:33N 40°04' E 001°28'1919.0
2015-Feb-21 06:33N 40°21' E 001°39'1919.0
2015-Feb-21 05:33N 40°38' E 001°50'1918.7
2015-Feb-21 04:33N 40°54' E 002°03'12 0.8
2015-Feb-20 14:30N 41°05' E 002°06'1819.0
2015-Feb-20 13:33N 40°49' E 001°57'1818.3
2015-Feb-20 12:33N 40°33' E 001°44'1918.6
2015-Feb-20 11:33N 40°17' E 001°33'1918.6
2015-Feb-20 10:33N 40°00' E 001°21'2118.9
2015-Feb-20 09:28N 39°42' E 001°08'13318.3
2015-Feb-20 02:11N 37°47' W 000°19'25915.6
2015-Feb-19 09:33N 35°59' W 005°13'1413.8
2015-Feb-19 08:33N 35°57' W 005°29'  

Dump ship's entire track history